Valley Springs, South Dakota
Current Conditions -  °F | °C
As of 3:14 PM on Saturday 20 Dec 2014 (Local Time) from KLYV Reporting Station
Haze Haze  
Wind Chill: -4°   Ceiling: 600
Heat Index:   Visibility: 3mi
Dew Point: -1°   Wind: 8mph
Humidity: 93%   Direction: 170°S
Pressure: 30.02"   Gusts: NA
Location:  43.58°N, 96.47°W
Report Text: KLYV 202114Z AUTO 17007KT 3SM BR OVC006 00/M01 A3002 RMK AO2
Loading
Personal Weather Stations






























Interactive Weather Map New forecast layout! Learn more

10-Day Weather Forecast

Advertisements
Track Severe Weather on mobile